createdAt,value
2022-08-17T00:00:33.295Z,7.20
2022-08-17T00:03:10.020Z,7.40
2022-08-17T00:05:41.518Z,7.87
2022-08-17T00:08:09.419Z,7.40
2022-08-17T00:10:37.801Z,7.80
2022-08-17T00:13:11.698Z,7.50
2022-08-17T00:15:39.992Z,7.17
2022-08-17T00:19:06.768Z,7.50
2022-08-17T00:20:58.349Z,7.07
2022-08-17T00:23:26.889Z,7.60
2022-08-17T00:25:54.981Z,7.37
2022-08-17T00:28:23.101Z,7.70
2022-08-17T00:30:53.426Z,7.60
2022-08-17T00:33:27.219Z,7.60
2022-08-17T00:35:56.411Z,7.33
2022-08-17T00:38:25.383Z,6.70
2022-08-17T00:40:59.161Z,7.40
2022-08-17T00:43:31.898Z,7.60
2022-08-17T00:46:02.048Z,6.90
2022-08-17T00:48:32.259Z,7.47
2022-08-17T00:51:07.959Z,8.13
2022-08-17T00:53:39.615Z,7.00
2022-08-17T00:56:11.775Z,7.43
2022-08-17T00:58:39.922Z,7.33
2022-08-17T01:01:09.809Z,7.07
2022-08-17T01:03:40.592Z,7.00
2022-08-17T01:06:10.129Z,6.83
2022-08-17T01:08:40.443Z,7.40
2022-08-17T01:11:10.187Z,7.20
2022-08-17T01:13:41.834Z,8.07
2022-08-17T01:16:17.027Z,7.57
2022-08-17T01:18:49.172Z,7.73
2022-08-17T01:21:24.893Z,8.20
2022-08-17T01:23:54.126Z,7.10
2022-08-17T01:26:23.241Z,7.57
2022-08-17T01:28:54.242Z,7.13
2022-08-17T01:31:24.603Z,7.50
2022-08-17T01:33:52.585Z,7.23
2022-08-17T01:36:20.592Z,6.70
2022-08-17T01:38:48.325Z,7.60
2022-08-17T01:41:18.144Z,7.63
2022-08-17T01:43:50.503Z,8.50
2022-08-17T01:46:23.173Z,7.70
2022-08-17T01:48:51.480Z,7.37
2022-08-17T01:51:19.859Z,7.23
2022-08-17T01:53:51.570Z,7.40
2022-08-17T01:56:24.041Z,8.10
2022-08-17T01:58:52.156Z,7.50
2022-08-17T02:01:22.793Z,7.40
2022-08-17T02:03:54.567Z,7.53
2022-08-17T02:06:30.454Z,7.27
2022-08-17T02:09:03.446Z,7.20
2022-08-17T02:11:37.641Z,7.80
2022-08-17T02:14:06.386Z,7.40
2022-08-17T02:16:37.844Z,7.53
2022-08-17T02:19:08.015Z,7.80
2022-08-17T02:21:36.525Z,7.20
2022-08-17T02:24:05.904Z,7.53
2022-08-17T02:26:35.128Z,7.13
2022-08-17T02:29:03.985Z,7.67
2022-08-17T02:31:32.066Z,8.13
2022-08-17T02:34:04.210Z,7.30
2022-08-17T02:36:33.944Z,6.83
2022-08-17T02:39:02.159Z,7.73
2022-08-17T02:41:29.854Z,7.87
2022-08-17T02:43:58.956Z,7.33
2022-08-17T02:46:26.940Z,8.63
2022-08-17T02:48:54.659Z,8.07
2022-08-17T02:51:22.384Z,7.77
2022-08-17T02:53:50.128Z,8.17
2022-08-17T02:56:17.940Z,7.97
2022-08-17T02:58:46.234Z,7.70
2022-08-17T03:01:15.395Z,7.40
2022-08-17T03:03:43.408Z,8.37
2022-08-17T03:06:11.236Z,7.97
2022-08-17T03:08:38.934Z,7.50
2022-08-17T03:11:06.622Z,8.00
2022-08-17T03:13:34.691Z,9.03
2022-08-17T03:16:02.473Z,8.60
2022-08-17T03:18:31.532Z,8.40
2022-08-17T03:21:01.659Z,7.30
2022-08-17T03:23:30.432Z,7.93
2022-08-17T03:25:59.508Z,7.27
2022-08-17T03:28:28.218Z,7.77
2022-08-17T03:30:56.081Z,8.93
2022-08-17T03:33:23.823Z,8.47
2022-08-17T03:35:53.207Z,8.30
2022-08-17T03:38:21.782Z,8.00
2022-08-17T03:40:56.647Z,7.43
2022-08-17T03:43:28.820Z,8.17
2022-08-17T03:46:34.214Z,8.07
2022-08-17T03:49:19.506Z,7.57
2022-08-17T03:52:06.112Z,8.17
2022-08-17T03:54:51.274Z,9.13
2022-08-17T03:57:19.523Z,8.20
2022-08-17T03:59:47.861Z,8.00
2022-08-17T04:02:20.850Z,7.80
2022-08-17T04:04:50.787Z,8.17
2022-08-17T04:07:21.239Z,8.13
2022-08-17T04:09:49.188Z,7.83
2022-08-17T04:12:18.741Z,8.23
2022-08-17T04:14:52.715Z,8.10
2022-08-17T04:17:24.139Z,8.07
2022-08-17T04:19:52.218Z,8.20
2022-08-17T04:22:32.376Z,8.67
2022-08-17T04:25:09.763Z,7.97
2022-08-17T04:27:37.551Z,9.00
2022-08-17T04:30:07.877Z,8.43
2022-08-17T04:33:04.290Z,7.37
2022-08-17T04:35:37.580Z,7.70
2022-08-17T04:38:07.536Z,7.77
2022-08-17T04:40:52.866Z,8.50
2022-08-17T04:43:22.815Z,8.33
2022-08-17T04:45:56.352Z,8.30
2022-08-17T04:48:29.801Z,7.70
2022-08-17T04:51:09.637Z,8.10
2022-08-17T04:53:39.988Z,7.87
2022-08-17T04:56:11.678Z,9.03
2022-08-17T04:58:45.557Z,8.73
2022-08-17T05:01:13.797Z,7.90
2022-08-17T05:03:41.618Z,8.27
2022-08-17T05:06:09.343Z,8.13
2022-08-17T05:08:37.506Z,8.67
2022-08-17T05:11:06.883Z,8.70
2022-08-17T05:13:34.805Z,8.23
2022-08-17T05:16:04.518Z,8.77
2022-08-17T05:18:33.045Z,8.50
2022-08-17T05:21:01.072Z,8.93
2022-08-17T05:23:35.546Z,7.47
2022-08-17T05:26:20.446Z,7.50
2022-08-17T05:28:54.992Z,9.00
2022-08-17T05:31:26.155Z,7.93
2022-08-17T05:33:54.351Z,8.57
2022-08-17T05:36:42.984Z,8.20
2022-08-17T05:39:14.374Z,8.33
2022-08-17T05:41:48.191Z,8.40
2022-08-17T05:44:16.367Z,7.93
2022-08-17T05:46:49.793Z,7.87
2022-08-17T05:49:20.252Z,8.00
2022-08-17T05:52:14.748Z,8.30
2022-08-17T05:54:58.982Z,7.87
2022-08-17T05:57:54.167Z,8.43
2022-08-17T06:00:30.690Z,8.63
2022-08-17T06:03:28.331Z,7.60
2022-08-17T06:06:10.069Z,8.10
2022-08-17T06:08:48.883Z,8.57
2022-08-17T06:11:26.707Z,7.97
2022-08-17T06:14:18.165Z,8.10
2022-08-17T06:16:49.785Z,7.80
2022-08-17T06:19:21.985Z,7.40
2022-08-17T06:21:53.969Z,8.30
2022-08-17T06:24:31.374Z,7.40
2022-08-17T06:27:08.874Z,7.43
2022-08-17T06:29:46.765Z,7.87
2022-08-17T06:32:15.007Z,7.47
2022-08-17T06:34:44.998Z,7.40
2022-08-17T06:37:39.129Z,7.20
2022-08-17T06:40:21.076Z,7.13
2022-08-17T06:43:05.681Z,9.33
2022-08-17T06:45:40.281Z,8.63
2022-08-17T06:48:13.940Z,9.30
2022-08-17T06:50:49.044Z,9.23
2022-08-17T06:53:24.429Z,9.70
2022-08-17T06:56:00.879Z,8.90
2022-08-17T06:58:31.284Z,9.70
2022-08-17T07:01:06.956Z,9.20
2022-08-17T07:03:41.884Z,9.63
2022-08-17T07:06:15.399Z,9.37
2022-08-17T07:08:52.085Z,9.60
2022-08-17T07:11:27.179Z,9.87
2022-08-17T07:14:08.333Z,9.13
2022-08-17T07:16:43.951Z,9.00
2022-08-17T07:19:12.644Z,9.40
2022-08-17T07:21:49.690Z,10.10
2022-08-17T07:24:33.051Z,9.17
2022-08-17T07:27:13.821Z,8.83
2022-08-17T07:29:46.332Z,8.47
2022-08-17T07:32:19.398Z,8.67
2022-08-17T07:35:11.831Z,8.23
2022-08-17T07:37:41.627Z,7.60
2022-08-17T07:40:29.315Z,7.07
2022-08-17T07:43:22.343Z,7.53
2022-08-17T07:46:24.570Z,7.70
2022-08-17T07:48:57.076Z,7.57
2022-08-17T07:51:28.903Z,7.40
2022-08-17T07:54:13.651Z,8.50
2022-08-17T07:56:46.934Z,7.63
2022-08-17T07:59:23.060Z,7.60
2022-08-17T08:02:05.378Z,7.70
2022-08-17T08:04:59.097Z,7.00
2022-08-17T08:07:29.428Z,6.67
2022-08-17T08:10:10.932Z,6.50
2022-08-17T08:12:41.346Z,7.20
2022-08-17T08:15:16.744Z,7.70
2022-08-17T08:17:53.445Z,7.97
2022-08-17T08:20:50.925Z,7.17
2022-08-17T08:23:33.652Z,7.67
2022-08-17T08:26:18.598Z,7.13
2022-08-17T08:28:52.450Z,6.50
2022-08-17T08:31:26.974Z,6.87
2022-08-17T08:34:09.089Z,7.37
2022-08-17T08:37:16.469Z,7.40
2022-08-17T08:39:56.921Z,8.30
2022-08-17T08:42:34.165Z,7.60
2022-08-17T08:45:13.619Z,7.27
2022-08-17T08:48:05.582Z,7.50
2022-08-17T08:50:49.249Z,7.00
2022-08-17T08:53:28.605Z,7.00
2022-08-17T08:56:01.150Z,7.30
2022-08-17T08:58:41.620Z,7.10
2022-08-17T09:01:19.526Z,7.37
2022-08-17T09:04:21.789Z,7.70
2022-08-17T09:07:02.250Z,7.53
2022-08-17T09:09:46.700Z,6.90
2022-08-17T09:12:22.361Z,7.30
2022-08-17T09:14:57.842Z,7.83
2022-08-17T09:17:36.563Z,8.60
2022-08-17T09:20:12.113Z,8.30
2022-08-17T09:23:01.037Z,7.87
2022-08-17T09:25:36.221Z,7.93
2022-08-17T09:28:07.923Z,7.87
2022-08-17T09:30:46.878Z,8.00
2022-08-17T09:33:18.478Z,8.37
2022-08-17T09:35:53.576Z,8.50
2022-08-17T09:38:32.170Z,8.33
2022-08-17T09:41:10.519Z,8.57
2022-08-17T09:43:45.846Z,8.90
2022-08-17T09:46:19.469Z,8.67
2022-08-17T09:48:55.582Z,9.30
2022-08-17T09:51:31.346Z,9.13
2022-08-17T09:54:21.119Z,9.40
2022-08-17T09:57:25.788Z,8.57
2022-08-17T09:59:59.775Z,8.00
2022-08-17T10:02:54.370Z,8.80
2022-08-17T10:05:27.565Z,9.20
2022-08-17T10:08:02.616Z,6.70
2022-08-17T10:10:36.133Z,8.83
2022-08-17T10:13:11.971Z,7.40
2022-08-17T10:15:49.584Z,7.70
2022-08-17T10:18:37.629Z,6.80
2022-08-17T10:21:26.946Z,6.57
2022-08-17T10:24:19.438Z,6.70
2022-08-17T10:26:56.542Z,7.23
2022-08-17T10:29:38.206Z,6.60
2022-08-17T10:32:26.453Z,6.90
2022-08-17T10:35:10.494Z,6.87
2022-08-17T10:37:50.949Z,6.63
2022-08-17T10:40:38.152Z,6.13
2022-08-17T10:43:21.047Z,6.37
2022-08-17T10:46:10.643Z,6.63
2022-08-17T10:49:22.865Z,6.97
2022-08-17T10:51:54.303Z,5.47
2022-08-17T10:54:38.932Z,6.57
2022-08-17T10:57:38.656Z,6.50
2022-08-17T11:00:12.829Z,6.53
2022-08-17T11:02:50.355Z,7.80
2022-08-17T11:05:43.736Z,8.47
2022-08-17T11:08:33.260Z,7.87
2022-08-17T11:11:18.275Z,8.63
2022-08-17T11:13:54.449Z,7.13
2022-08-17T11:16:37.592Z,5.70
2022-08-17T11:19:36.986Z,6.50
2022-08-17T11:22:33.576Z,9.80
2022-08-17T11:25:14.844Z,6.60
2022-08-17T11:27:45.029Z,6.67
2022-08-17T11:30:15.618Z,7.37
2022-08-17T11:32:52.870Z,5.63
2022-08-17T11:35:39.869Z,5.00
2022-08-17T11:38:19.554Z,5.40
2022-08-17T11:41:11.223Z,5.50
2022-08-17T11:44:04.783Z,6.53
2022-08-17T11:46:59.956Z,6.20
2022-08-17T11:50:02.904Z,5.83
2022-08-17T11:52:41.242Z,6.53
2022-08-17T11:55:38.259Z,5.20
2022-08-17T11:58:37.286Z,5.50
2022-08-17T12:01:06.140Z,5.30
2022-08-17T12:03:54.321Z,5.70
2022-08-17T12:06:50.055Z,6.77
2022-08-17T12:09:24.586Z,6.67
2022-08-17T12:12:13.207Z,6.00
2022-08-17T12:15:09.450Z,6.07
2022-08-17T12:17:52.057Z,6.53
2022-08-17T12:20:24.002Z,6.80
2022-08-17T12:23:01.304Z,5.70
2022-08-17T12:25:38.982Z,5.90
2022-08-17T12:28:20.153Z,6.27
2022-08-17T12:30:52.002Z,5.50
2022-08-17T12:33:25.382Z,6.60
2022-08-17T12:36:02.832Z,6.53
2022-08-17T12:38:33.102Z,5.83
2022-08-17T12:41:25.340Z,6.67
2022-08-17T12:43:58.598Z,6.30
2022-08-17T12:46:26.354Z,6.00
2022-08-17T12:48:59.740Z,6.67
2022-08-17T12:51:28.961Z,6.40
2022-08-17T12:53:58.398Z,6.60
2022-08-17T12:56:28.415Z,5.87
2022-08-17T12:58:56.647Z,6.00
2022-08-17T13:01:25.049Z,5.37
2022-08-17T13:03:57.180Z,6.10
2022-08-17T13:06:32.052Z,5.70
2022-08-17T13:09:10.717Z,8.20
2022-08-17T13:11:48.811Z,5.40
2022-08-17T13:14:18.439Z,5.13
2022-08-17T13:16:52.442Z,4.97
2022-08-17T13:19:29.750Z,5.90
2022-08-17T13:22:11.932Z,5.17
2022-08-17T13:24:53.007Z,5.10
2022-08-17T13:27:24.980Z,5.33
2022-08-17T13:29:57.258Z,5.40
2022-08-17T13:32:41.277Z,5.23
2022-08-17T13:35:39.294Z,4.90
2022-08-17T13:38:10.344Z,5.37
2022-08-17T13:40:42.645Z,5.17
2022-08-17T13:43:12.358Z,5.67
2022-08-17T13:45:50.292Z,4.73
2022-08-17T13:48:25.669Z,4.50
2022-08-17T13:51:27.576Z,5.00
2022-08-17T13:54:15.622Z,4.50
2022-08-17T13:57:03.634Z,5.10
2022-08-17T13:59:55.214Z,4.80
2022-08-17T14:02:25.877Z,5.67
2022-08-17T14:04:56.263Z,5.40
2022-08-17T14:07:34.805Z,4.47
2022-08-17T14:10:07.326Z,4.53
2022-08-17T14:12:38.522Z,4.77
2022-08-17T14:15:09.661Z,5.07
2022-08-17T14:17:39.054Z,5.30
2022-08-17T14:20:10.598Z,4.83
2022-08-17T14:22:41.397Z,4.17
2022-08-17T14:25:10.720Z,4.73
2022-08-17T14:27:43.259Z,4.43
2022-08-17T14:30:24.503Z,4.87
2022-08-17T14:32:52.959Z,4.60
2022-08-17T14:35:23.966Z,5.00
2022-08-17T14:37:53.259Z,4.90
2022-08-17T14:40:24.642Z,4.63
2022-08-17T14:42:55.057Z,5.40
2022-08-17T14:45:29.839Z,5.57
2022-08-17T14:48:01.374Z,4.63
2022-08-17T14:50:29.124Z,4.57
2022-08-17T14:52:58.169Z,4.73
2022-08-17T14:55:27.051Z,4.90
2022-08-17T14:57:54.809Z,4.87
2022-08-17T15:00:23.946Z,5.50
2022-08-17T15:02:54.798Z,4.37
2022-08-17T15:05:24.547Z,4.63
2022-08-17T15:07:52.805Z,5.43
2022-08-17T15:10:20.893Z,5.00
2022-08-17T15:12:49.096Z,4.80
2022-08-17T15:15:18.712Z,5.20
2022-08-17T15:17:47.801Z,5.27
2022-08-17T15:20:17.229Z,5.60
2022-08-17T15:22:49.563Z,5.47
2022-08-17T15:25:18.842Z,5.07
2022-08-17T15:27:47.467Z,5.20
2022-08-17T15:30:15.855Z,5.30
2022-08-17T15:32:46.847Z,4.77
2022-08-17T15:35:26.793Z,5.43
2022-08-17T15:37:55.814Z,4.93
2022-08-17T15:40:23.556Z,5.00
2022-08-17T15:42:51.339Z,4.67
2022-08-17T15:45:24.572Z,4.93
2022-08-17T15:47:53.023Z,4.40
2022-08-17T15:50:22.767Z,4.90
2022-08-17T15:52:57.862Z,5.00
2022-08-17T15:55:26.871Z,4.80
2022-08-17T15:57:55.131Z,4.90
2022-08-17T16:00:23.896Z,5.90
2022-08-17T16:03:15.302Z,5.60
2022-08-17T16:05:41.457Z,4.80
2022-08-17T16:08:10.937Z,5.13
2022-08-17T16:10:39.559Z,5.17
2022-08-17T16:13:17.346Z,4.83
2022-08-17T16:15:49.732Z,5.10
2022-08-17T16:18:25.475Z,5.40
2022-08-17T16:20:55.022Z,5.70
2022-08-17T16:23:22.825Z,5.43
2022-08-17T16:25:52.799Z,5.20
2022-08-17T16:28:36.465Z,5.50
2022-08-17T16:31:07.988Z,5.10
2022-08-17T16:33:36.643Z,5.40
2022-08-17T16:36:07.180Z,5.50
2022-08-17T16:38:35.745Z,6.20
2022-08-17T16:41:03.768Z,6.40
2022-08-17T16:43:31.524Z,5.63
2022-08-17T16:46:00.730Z,5.93
2022-08-17T16:48:29.869Z,6.10
2022-08-17T16:51:03.150Z,6.20
2022-08-17T16:53:33.459Z,5.80
2022-08-17T16:56:01.164Z,6.00
2022-08-17T16:58:29.160Z,6.00
2022-08-17T17:00:59.266Z,5.47
2022-08-17T17:03:30.116Z,6.17
2022-08-17T17:06:08.187Z,6.17
2022-08-17T17:08:44.902Z,5.00
2022-08-17T17:11:15.307Z,6.57
2022-08-17T17:13:47.819Z,5.37
2022-08-17T17:16:21.592Z,5.87
2022-08-17T17:19:04.420Z,6.03
2022-08-17T17:21:42.848Z,5.67
2022-08-17T17:24:17.898Z,7.33
2022-08-17T17:26:58.906Z,6.57
2022-08-17T17:29:48.174Z,6.00
2022-08-17T17:32:22.100Z,6.20
2022-08-17T17:34:56.050Z,6.13
2022-08-17T17:37:28.456Z,8.90
2022-08-17T17:40:03.801Z,5.70
2022-08-17T17:42:33.130Z,6.03
2022-08-17T17:45:08.505Z,6.50
2022-08-17T17:47:37.257Z,6.57
2022-08-17T17:50:07.594Z,5.80
2022-08-17T17:52:45.309Z,6.10
2022-08-17T17:55:30.490Z,6.50
2022-08-17T17:58:11.226Z,6.70
2022-08-17T18:00:45.714Z,7.47
2022-08-17T18:03:25.570Z,6.83
2022-08-17T18:06:09.796Z,6.40
2022-08-17T18:08:48.846Z,6.63
2022-08-17T18:11:39.499Z,6.53
2022-08-17T18:14:26.835Z,6.10
2022-08-17T18:16:57.788Z,6.23
2022-08-17T18:19:28.749Z,6.73
2022-08-17T18:22:05.239Z,7.50
2022-08-17T18:24:37.951Z,6.83
2022-08-17T18:27:21.413Z,6.90
2022-08-17T18:29:50.891Z,6.67
2022-08-17T18:32:37.525Z,6.87
2022-08-17T18:35:27.881Z,7.40
2022-08-17T18:37:57.713Z,6.80
2022-08-17T18:40:37.647Z,7.00
2022-08-17T18:43:14.500Z,7.00
2022-08-17T18:45:46.611Z,7.47
2022-08-17T18:48:25.164Z,6.93
2022-08-17T18:50:54.498Z,6.63
2022-08-17T18:53:35.272Z,6.50
2022-08-17T18:56:27.677Z,7.20
2022-08-17T18:59:07.331Z,6.30
2022-08-17T19:01:52.617Z,7.10
2022-08-17T19:04:34.522Z,6.97
2022-08-17T19:07:13.389Z,8.30
2022-08-17T19:09:46.428Z,7.33
2022-08-17T19:12:27.400Z,7.80
2022-08-17T19:14:59.257Z,7.10
2022-08-17T19:17:35.317Z,7.33
2022-08-17T19:20:10.175Z,7.90
2022-08-17T19:22:51.999Z,8.10
2022-08-17T19:25:24.318Z,7.40
2022-08-17T19:28:02.062Z,7.40
2022-08-17T19:30:32.746Z,8.20
2022-08-17T19:33:02.321Z,7.60
2022-08-17T19:35:43.541Z,7.97
2022-08-17T19:38:22.217Z,7.77
2022-08-17T19:41:01.732Z,7.57
2022-08-17T19:43:50.479Z,7.37
2022-08-17T19:46:28.640Z,7.43
2022-08-17T19:49:04.899Z,7.97
2022-08-17T19:51:41.603Z,7.87
2022-08-17T19:54:18.669Z,8.23
2022-08-17T19:56:56.505Z,8.27
2022-08-17T19:59:36.015Z,7.87
2022-08-17T20:02:25.926Z,7.57
2022-08-17T20:04:57.986Z,8.00
2022-08-17T20:07:31.267Z,7.67
2022-08-17T20:10:06.451Z,8.00
2022-08-17T20:12:38.022Z,7.87
2022-08-17T20:15:10.143Z,7.60
2022-08-17T20:17:43.257Z,8.10
2022-08-17T20:20:24.031Z,7.43
2022-08-17T20:22:55.333Z,7.73
2022-08-17T20:25:32.423Z,8.43
2022-08-17T20:28:08.385Z,7.87
2022-08-17T20:30:39.907Z,7.73
2022-08-17T20:33:23.203Z,8.10
2022-08-17T20:36:05.910Z,7.37
2022-08-17T20:38:41.559Z,7.10
2022-08-17T20:41:15.619Z,7.37
2022-08-17T20:44:02.010Z,7.20
2022-08-17T20:47:02.499Z,8.27
2022-08-17T20:49:51.575Z,8.40
2022-08-17T20:52:50.769Z,8.60
2022-08-17T20:55:54.703Z,8.10
2022-08-17T20:58:47.240Z,7.90
2022-08-17T21:01:38.852Z,8.53
2022-08-17T21:04:09.452Z,7.57
2022-08-17T21:07:17.231Z,9.03
2022-08-17T21:09:46.084Z,8.50
2022-08-17T21:12:44.036Z,7.17
2022-08-17T21:15:30.911Z,7.53
2022-08-17T21:18:08.034Z,7.70
2022-08-17T21:20:47.502Z,7.40
2022-08-17T21:23:36.762Z,7.70
2022-08-17T21:26:26.722Z,8.33
2022-08-17T21:29:30.418Z,8.60
2022-08-17T21:32:24.239Z,7.83
2022-08-17T21:35:25.783Z,8.60
2022-08-17T21:37:58.591Z,7.90
2022-08-17T21:40:30.894Z,7.70
2022-08-17T21:43:08.250Z,8.93
2022-08-17T21:45:39.169Z,7.77
2022-08-17T21:48:11.214Z,8.03
2022-08-17T21:50:40.587Z,7.80
2022-08-17T21:53:09.816Z,8.17
2022-08-17T21:55:39.053Z,8.33
2022-08-17T21:58:28.049Z,8.60
2022-08-17T22:01:21.062Z,7.20
2022-08-17T22:03:57.548Z,8.50
2022-08-17T22:06:28.866Z,8.27
2022-08-17T22:09:03.374Z,7.57
2022-08-17T22:11:33.172Z,8.10
2022-08-17T22:14:05.940Z,7.30
2022-08-17T22:16:34.837Z,8.33
2022-08-17T22:19:02.816Z,7.23
2022-08-17T22:21:30.612Z,7.30
2022-08-17T22:24:05.883Z,6.40
2022-08-17T22:27:10.896Z,6.20
2022-08-17T22:29:57.167Z,6.63
2022-08-17T22:32:38.622Z,6.33
2022-08-17T22:35:32.554Z,6.77
2022-08-17T22:38:32.809Z,6.33
2022-08-17T22:41:38.046Z,6.90
2022-08-17T22:44:21.038Z,5.80
2022-08-17T22:46:54.408Z,5.80
2022-08-17T22:49:26.767Z,5.90
2022-08-17T22:52:01.973Z,6.87
2022-08-17T22:54:48.396Z,6.30
2022-08-17T22:57:34.719Z,5.77
2022-08-17T23:00:05.358Z,6.63
2022-08-17T23:02:35.789Z,6.40
2022-08-17T23:05:21.917Z,6.30
2022-08-17T23:07:53.127Z,5.90
2022-08-17T23:10:21.042Z,7.00
2022-08-17T23:12:48.816Z,6.70
2022-08-17T23:15:19.983Z,6.67
2022-08-17T23:17:48.032Z,7.33
2022-08-17T23:20:17.476Z,6.60
2022-08-17T23:22:52.131Z,6.20
2022-08-17T23:25:26.407Z,6.90
2022-08-17T23:27:54.466Z,6.60
2022-08-17T23:30:25.371Z,6.53
2022-08-17T23:32:54.187Z,7.70
2022-08-17T23:35:40.097Z,7.67
2022-08-17T23:38:10.749Z,7.00
2022-08-17T23:40:39.743Z,7.53
2022-08-17T23:43:17.618Z,7.77
2022-08-17T23:45:54.961Z,7.90
2022-08-17T23:48:32.681Z,6.57
2022-08-17T23:51:08.997Z,7.27
2022-08-17T23:53:40.118Z,7.23
2022-08-17T23:56:11.339Z,7.40
2022-08-17T23:58:39.842Z,7.40
